Time;durP1;ratioP1;P1;durP2;ratioP2;P2;SDS_P1;SDS_P2;PMS_P1;PMS_P2;Temp;Humidity;BMP_temperature;BMP_pressure;BME280_temperature;BME280_humidity;BME280_pressure;Samples;Min_cycle;Max_cycle;Signal;HPM_P1;HPM_P2
2024/01/02 00:02:10;;;;;;;31.85;18.27;;;;;;;28.62;67.67;100990.97;4964253;28;70589;-39
2024/01/02 00:04:41;;;;;;;28.95;18.33;;;;;;;28.68;70.70;100999.09;4965873;28;66455;-41
2024/01/02 00:07:12;;;;;;;27.75;18.42;;;;;;;28.38;72.34;100952.66;4943166;28;69882;-42
2024/01/02 00:09:42;;;;;;;30.98;19.58;;;;;;;28.71;70.83;100989.75;4971397;28;65653;-44
2024/01/02 00:12:12;;;;;;;31.95;20.23;;;;;;;28.84;73.58;101011.41;4967947;28;70221;-42
2024/01/02 00:14:42;;;;;;;26.48;19.73;;;;;;;28.77;71.36;101005.13;4957352;28;66396;-43
2024/01/02 00:17:13;;;;;;;38.10;21.02;;;;;;;28.87;73.55;101013.69;4945388;28;68281;-42
2024/01/02 00:19:44;;;;;;;37.67;22.02;;;;;;;28.83;74.03;101004.31;4989683;28;67793;-41
2024/01/02 00:22:14;;;;;;;33.55;20.73;;;;;;;28.83;73.84;101003.50;4986037;28;70062;-41
2024/01/02 00:24:44;;;;;;;29.35;21.75;;;;;;;28.81;72.62;101001.00;4979818;28;65959;-41
2024/01/02 00:27:14;;;;;;;36.83;24.20;;;;;;;28.90;74.73;101020.56;4993239;28;69991;-41
2024/01/02 00:29:45;;;;;;;40.67;25.27;;;;;;;29.02;76.00;101045.09;4986325;28;66044;-42
2024/01/02 00:32:15;;;;;;;32.50;24.83;;;;;;;29.09;68.66;101036.00;4976375;28;70481;-41
2024/01/02 00:34:45;;;;;;;44.92;24.35;;;;;;;29.09;68.26;101035.19;4972148;28;66394;-41
2024/01/02 00:37:15;;;;;;;41.67;22.98;;;;;;;29.12;67.52;101042.88;4991000;28;70653;-40
2024/01/02 00:39:45;;;;;;;29.42;22.23;;;;;;;29.27;67.39;101057.03;4971431;28;65371;-41
2024/01/02 00:42:16;;;;;;;36.03;22.75;;;;;;;29.26;66.85;101051.84;4994701;28;70550;-41
2024/01/02 00:44:46;;;;;;;31.40;21.38;;;;;;;29.19;67.08;101035.59;4991922;28;67035;-41
2024/01/02 00:47:20;;;;;;;35.40;22.40;;;;;;;29.36;66.44;101063.06;4984671;28;70580;-40
2024/01/02 00:49:51;;;;;;;35.45;21.85;;;;;;;29.36;66.45;101063.91;4986104;28;66319;-39
2024/01/02 00:52:21;;;;;;;37.70;21.65;;;;;;;29.38;66.78;101061.81;4976665;28;69905;-41
2024/01/02 00:54:52;;;;;;;29.30;21.65;;;;;;;29.39;66.67;101063.50;4968648;28;66570;-41
2024/01/02 00:57:22;;;;;;;29.75;21.75;;;;;;;29.42;66.28;101077.63;4964980;28;69896;-41
2024/01/02 00:59:53;;;;;;;31.38;21.70;;;;;;;29.05;66.51;101025.81;4967878;28;66305;-41
2024/01/02 01:02:23;;;;;;;38.75;22.67;;;;;;;29.45;66.29;101088.88;4988069;28;70608;-41
2024/01/02 01:04:53;;;;;;;31.02;20.20;;;;;;;29.46;66.28;101100.50;4966953;28;66617;-41
2024/01/02 01:07:23;;;;;;;34.35;20.75;;;;;;;29.47;65.93;101099.47;4991376;28;70416;-40
2024/01/02 01:09:53;;;;;;;31.60;21.50;;;;;;;29.43;66.17;101090.09;4982592;28;66684;-41
2024/01/02 01:12:24;;;;;;;30.42;21.88;;;;;;;29.49;65.91;101097.38;4972130;28;70422;-41
2024/01/02 01:14:54;;;;;;;32.17;21.63;;;;;;;29.48;65.91;101090.31;4986689;28;66581;-41
2024/01/02 01:17:25;;;;;;;35.53;21.63;;;;;;;29.52;66.30;101096.97;4923241;28;69195;-40
2024/01/02 01:19:56;;;;;;;31.35;21.77;;;;;;;29.56;66.31;101106.31;4936139;28;67387;-41
2024/01/02 01:22:27;;;;;;;28.08;20.20;;;;;;;29.56;65.98;101095.50;4967665;28;71389;-41
2024/01/02 01:24:57;;;;;;;26.92;20.15;;;;;;;29.55;66.30;101091.16;4949731;28;65690;-40
2024/01/02 01:27:27;;;;;;;28.98;21.27;;;;;;;29.58;65.83;101093.44;4969538;28;70056;-40
2024/01/02 01:29:58;;;;;;;24.20;19.88;;;;;;;29.54;66.28;101093.03;4946099;28;66320;-40
2024/01/02 01:32:29;;;;;;;32.17;20.42;;;;;;;29.60;66.21;101102.19;4923087;28;69342;-41
2024/01/02 01:35:00;;;;;;;29.73;20.25;;;;;;;29.60;65.97;101104.88;4954548;28;66933;-40
2024/01/02 01:37:31;;;;;;;32.55;20.23;;;;;;;29.62;66.19;101102.81;4945789;28;69840;-41
2024/01/02 01:40:01;;;;;;;27.05;19.90;;;;;;;29.56;66.18;101090.09;4964844;28;66675;-41
2024/01/02 01:42:31;;;;;;;29.27;20.95;;;;;;;29.65;65.84;101105.13;4956481;28;71127;-43
2024/01/02 01:45:01;;;;;;;37.25;21.38;;;;;;;29.60;66.31;101096.78;4952235;28;66344;-40
2024/01/02 01:47:32;;;;;;;28.23;19.65;;;;;;;29.68;66.65;101115.53;4949175;28;69312;-41
2024/01/02 01:50:03;;;;;;;25.45;20.08;;;;;;;29.64;66.39;101095.34;4971015;28;66492;-41
2024/01/02 01:52:34;;;;;;;27.23;21.05;;;;;;;29.68;66.71;101114.72;4962064;28;69636;-41
2024/01/02 01:55:06;;;;;;;22.48;19.40;;;;;;;29.15;66.80;101023.56;4966302;28;66094;-41
2024/01/02 01:57:39;;;;;;;24.65;19.17;;;;;;;29.43;66.81;101071.19;4946133;28;69195;-41
2024/01/02 02:00:10;;;;;;;21.45;18.58;;;;;;;29.62;66.77;101100.13;4962828;28;65845;-40
2024/01/02 02:02:41;;;;;;;23.67;19.73;;;;;;;29.69;66.91;101111.78;4947678;28;69335;-39
2024/01/02 02:05:11;;;;;;;24.53;19.17;;;;;;;29.78;66.64;101115.97;4966232;28;66013;-40
2024/01/02 02:07:43;;;;;;;22.83;18.70;;;;;;;29.87;66.70;101123.88;4965312;28;69841;-40
2024/01/02 02:10:13;;;;;;;25.80;19.92;;;;;;;29.78;66.55;101107.00;4946352;28;64672;-41
2024/01/02 02:12:43;;;;;;;22.73;19.02;;;;;;;29.91;66.90;101120.53;4969786;28;70469;-40
2024/01/02 02:15:14;;;;;;;20.30;17.88;;;;;;;29.93;66.83;101117.63;4949024;28;66347;-39
2024/01/02 02:17:46;;;;;;;20.52;18.33;;;;;;;29.94;66.37;101113.88;4961862;28;70483;-40
2024/01/02 02:20:16;;;;;;;21.35;17.85;;;;;;;29.96;66.65;101119.91;4939401;28;66241;-41
2024/01/02 02:22:49;;;;;;;22.45;18.38;;;;;;;29.38;66.57;101026.69;4951282;28;69811;-40
2024/01/02 02:25:20;;;;;;;24.17;18.25;;;;;;;29.98;66.22;101118.66;4972164;28;65960;-40
2024/01/02 02:27:50;;;;;;;21.35;18.60;;;;;;;29.97;66.83;101106.16;4966912;28;70245;-40
2024/01/02 02:30:21;;;;;;;23.60;18.88;;;;;;;30.00;66.54;101118.44;4942817;28;66407;-40
2024/01/02 02:32:51;;;;;;;21.90;18.48;;;;;;;30.01;66.87;101112.84;4967827;28;70128;-40
2024/01/02 02:35:22;;;;;;;20.30;17.67;;;;;;;30.06;66.46;101109.47;4946952;28;66046;-41
2024/01/02 02:37:55;;;;;;;20.88;18.52;;;;;;;29.94;66.33;101095.75;4964753;28;69268;-40
2024/01/02 02:40:26;;;;;;;20.42;17.50;;;;;;;30.10;66.33;101116.16;4965841;28;66748;-39
2024/01/02 02:42:56;;;;;;;24.65;17.77;;;;;;;30.06;66.54;101110.34;4964072;28;71946;-40
2024/01/02 02:45:32;;;;;;;20.58;16.73;;;;;;;30.12;66.51;101111.38;4944313;28;66573;-40
2024/01/02 02:48:02;;;;;;;20.42;18.25;;;;;;;30.14;66.34;101114.69;4964540;28;69769;-41
2024/01/02 02:50:33;;;;;;;22.77;17.88;;;;;;;30.13;66.95;101102.22;4965069;28;65835;-39
2024/01/02 02:53:04;;;;;;;21.42;16.80;;;;;;;30.11;66.39;101089.94;4961032;28;69485;-41
2024/01/02 02:55:34;;;;;;;20.23;17.23;;;;;;;30.20;66.32;101096.78;4941574;28;65890;-41
2024/01/02 02:58:04;;;;;;;19.38;17.33;;;;;;;30.15;66.63;101078.50;4964537;28;69675;-44
2024/01/02 03:00:35;;;;;;;20.48;17.08;;;;;;;30.20;66.74;101075.97;4947054;28;66121;-41
2024/01/02 03:03:06;;;;;;;19.33;17.48;;;;;;;30.23;66.51;101077.47;4968070;28;70297;-41
2024/01/02 03:05:36;;;;;;;24.48;17.65;;;;;;;30.26;66.87;101080.56;4952722;28;66206;-42
2024/01/02 03:08:07;;;;;;;18.42;16.63;;;;;;;30.26;66.48;101075.16;4972850;28;70402;-44
2024/01/02 03:10:38;;;;;;;20.80;16.35;;;;;;;30.26;66.44;101075.16;4967481;28;66189;-40
2024/01/02 03:13:08;;;;;;;18.77;16.80;;;;;;;30.32;66.90;101081.59;4967589;28;69346;-40
2024/01/02 03:15:39;;;;;;;19.38;17.25;;;;;;;30.33;66.66;101074.31;4969964;28;65963;-40
2024/01/02 03:18:09;;;;;;;18.63;16.33;;;;;;;30.30;66.47;101058.50;4955218;28;70439;-40
2024/01/02 03:20:40;;;;;;;25.92;17.38;;;;;;;30.34;66.68;101060.59;4942757;28;65984;-40
2024/01/02 03:23:10;;;;;;;20.40;16.65;;;;;;;30.41;66.53;101060.56;4955513;28;70120;-40
2024/01/02 03:25:41;;;;;;;20.23;16.52;;;;;;;30.40;66.19;101064.31;4978781;28;67370;-41
2024/01/02 03:28:12;;;;;;;17.92;16.08;;;;;;;30.44;66.48;101060.94;4945624;28;69723;-41
2024/01/02 03:30:42;;;;;;;18.17;16.33;;;;;;;30.46;66.71;101072.41;4967715;28;65778;-40
2024/01/02 03:33:12;;;;;;;19.27;16.30;;;;;;;30.49;66.25;101057.63;4965037;28;70335;-44
2024/01/02 03:35:42;;;;;;;19.42;16.75;;;;;;;30.43;66.25;101036.81;4937358;28;65894;-41
2024/01/02 03:38:14;;;;;;;17.83;15.65;;;;;;;30.53;66.30;101053.41;4947795;28;69814;-41
2024/01/02 03:40:44;;;;;;;18.33;16.52;;;;;;;30.54;66.40;101060.50;4957366;28;65969;-40
2024/01/02 03:43:14;;;;;;;17.65;15.70;;;;;;;30.57;66.37;101054.66;4978803;28;69997;-41
2024/01/02 03:45:45;;;;;;;17.63;15.82;;;;;;;30.59;66.16;101051.72;4968157;28;66450;-41
2024/01/02 03:48:16;;;;;;;17.65;15.82;;;;;;;30.47;66.60;101029.91;4959798;28;68909;-39
2024/01/02 03:50:46;;;;;;;19.00;15.73;;;;;;;30.57;66.47;101041.13;4971248;28;65613;-41
2024/01/02 03:53:16;;;;;;;17.88;15.75;;;;;;;30.66;66.59;101047.97;4969393;28;71071;-40
2024/01/02 03:55:47;;;;;;;17.13;15.45;;;;;;;30.68;66.43;101045.88;4946960;28;66101;-40
2024/01/02 03:58:17;;;;;;;16.60;15.00;;;;;;;30.71;66.42;101044.63;4961030;28;70494;-40
2024/01/02 04:00:48;;;;;;;17.02;15.32;;;;;;;30.59;66.13;101025.50;4977006;28;66651;-41
2024/01/02 04:03:18;;;;;;;16.73;15.02;;;;;;;30.61;66.29;101019.88;4968415;28;70253;-40
2024/01/02 04:05:49;;;;;;;17.60;15.80;;;;;;;30.57;66.45;101010.53;4958177;28;66102;-40
2024/01/02 04:08:20;;;;;;;17.05;15.40;;;;;;;30.77;65.99;101037.50;4952119;28;70820;-40
2024/01/02 04:10:50;;;;;;;16.77;14.75;;;;;;;30.72;66.33;101020.00;4956378;28;64943;-40
2024/01/02 04:13:23;;;;;;;17.17;15.43;;;;;;;30.83;66.09;101033.97;4976125;28;69893;-41
2024/01/02 04:15:53;;;;;;;16.23;14.63;;;;;;;30.84;66.07;101022.91;4972653;28;66559;-41
2024/01/02 04:18:23;;;;;;;16.73;14.98;;;;;;;30.87;66.02;101033.31;4969446;28;69124;-41
2024/01/02 04:20:54;;;;;;;16.77;14.73;;;;;;;30.89;66.34;101023.06;4950314;28;66065;-41
2024/01/02 04:23:24;;;;;;;15.90;14.52;;;;;;;30.92;65.85;101013.69;4976533;28;69798;-41
2024/01/02 04:25:54;;;;;;;16.15;14.57;;;;;;;30.94;66.02;101006.19;4950541;28;65954;-40
2024/01/02 04:28:24;;;;;;;15.18;13.65;;;;;;;30.95;66.11;101002.41;4953152;28;70229;-40
2024/01/02 04:30:54;;;;;;;19.40;14.75;;;;;;;30.90;66.12;100986.00;4979609;28;65666;-39
2024/01/02 04:33:25;;;;;;;17.58;14.98;;;;;;;30.98;65.90;100993.88;4963928;28;70138;-40
2024/01/02 04:35:56;;;;;;;14.93;13.60;;;;;;;30.89;66.14;100973.50;4944816;28;65893;-40
2024/01/02 04:38:27;;;;;;;14.95;13.50;;;;;;;31.02;66.07;100980.72;4963867;28;69350;-40
2024/01/02 04:40:59;;;;;;;16.10;14.55;;;;;;;31.03;66.22;100977.78;4948758;28;65901;-40
2024/01/02 04:43:29;;;;;;;15.10;13.70;;;;;;;31.07;66.06;100978.19;4967607;28;70838;-39
2024/01/02 04:46:00;;;;;;;16.23;14.52;;;;;;;31.08;65.93;100969.81;4964754;28;66135;-40
2024/01/02 04:48:30;;;;;;;15.48;14.02;;;;;;;31.09;65.66;100960.66;4945067;28;69832;-40
2024/01/02 04:51:01;;;;;;;16.25;14.60;;;;;;;31.12;66.36;100959.38;4962346;28;66009;-40
2024/01/02 04:53:31;;;;;;;15.27;13.70;;;;;;;31.15;65.73;100958.94;4965520;28;70387;-40
2024/01/02 04:56:01;;;;;;;15.30;13.98;;;;;;;31.16;65.87;100955.19;4964516;28;65622;-40
2024/01/02 04:58:32;;;;;;;16.20;14.70;;;;;;;31.20;65.93;100944.72;4962764;28;69426;-41
2024/01/02 05:01:03;;;;;;;17.08;14.52;;;;;;;31.15;65.85;100935.38;4964753;28;65096;-41
2024/01/02 05:03:33;;;;;;;;;;;;;;;30.91;67.23;100930.78;4974236;28;69736;-41
2024/01/02 05:06:04;;;;;;;17.00;13.45;;;;;;;31.15;66.08;100921.84;4963857;28;66755;-41
2024/01/02 05:08:34;;;;;;;15.83;14.33;;;;;;;31.22;65.89;100926.38;4936510;28;71509;-41
2024/01/02 05:11:05;;;;;;;17.98;13.98;;;;;;;31.21;65.97;100913.88;4970633;28;65920;-41
2024/01/02 05:13:37;;;;;;;15.18;13.70;;;;;;;30.45;65.74;100783.84;4969740;28;70238;-41
2024/01/02 05:16:08;;;;;;;15.38;13.88;;;;;;;31.20;65.82;100906.78;4966546;28;65571;-41
2024/01/02 05:18:39;;;;;;;14.95;13.52;;;;;;;31.27;65.48;100913.81;4966546;28;69825;-41
2024/01/02 05:21:09;;;;;;;14.80;13.27;;;;;;;31.23;65.74;100899.06;4951702;28;66509;-41
2024/01/02 05:23:39;;;;;;;15.27;13.45;;;;;;;31.28;65.91;100898.38;4963079;28;70790;-41
2024/01/02 05:26:09;;;;;;;13.70;12.55;;;;;;;31.27;65.62;100894.00;4965254;28;65415;-41
2024/01/02 05:28:39;;;;;;;14.80;13.50;;;;;;;31.34;65.57;100898.34;4951073;28;70076;-40
2024/01/02 05:31:10;;;;;;;15.20;13.77;;;;;;;31.35;65.57;100896.44;4975158;28;66018;-40
2024/01/02 05:33:40;;;;;;;15.27;13.70;;;;;;;31.38;65.24;100890.59;4960013;28;69972;-40
2024/01/02 05:36:14;;;;;;;14.27;12.98;;;;;;;31.27;65.42;100875.88;4941964;28;66028;-40
2024/01/02 05:38:44;;;;;;;14.98;13.60;;;;;;;31.41;65.48;100882.03;4956184;28;70347;-40
2024/01/02 05:41:14;;;;;;;14.65;13.27;;;;;;;31.40;65.32;100883.09;4962271;28;65251;-40
2024/01/02 05:43:44;;;;;;;14.50;13.05;;;;;;;31.39;65.43;100857.00;4967659;28;69283;-41
2024/01/02 05:46:15;;;;;;;14.27;13.02;;;;;;;31.46;65.43;100865.91;4967003;28;65916;-40
2024/01/02 05:48:45;;;;;;;14.32;13.15;;;;;;;31.46;65.50;100846.94;4944357;28;69811;-40
2024/01/02 05:51:18;;;;;;;14.57;13.05;;;;;;;31.06;65.31;100787.69;4964339;28;65926;-40
2024/01/02 05:53:49;;;;;;;13.80;12.60;;;;;;;31.49;65.41;100838.34;4940506;28;70308;-40
2024/01/02 05:56:19;;;;;;;14.70;13.07;;;;;;;31.53;65.23;100847.69;4973240;28;66875;-42
2024/01/02 05:58:50;;;;;;;14.80;13.38;;;;;;;31.46;65.08;100825.25;4939452;28;69515;-41
2024/01/02 06:01:20;;;;;;;14.02;12.23;;;;;;;31.54;65.08;100837.69;4959554;28;66385;-41
2024/01/02 06:03:50;;;;;;;14.48;13.15;;;;;;;31.57;65.20;100838.06;4949399;28;69801;-40
2024/01/02 06:06:21;;;;;;;13.98;12.98;;;;;;;31.58;65.27;100831.56;4972851;28;66491;-41
2024/01/02 06:08:52;;;;;;;14.05;12.88;;;;;;;31.59;65.22;100824.25;4967323;28;70480;-41
2024/01/02 06:11:22;;;;;;;14.48;13.05;;;;;;;31.61;65.27;100827.56;4950827;28;67099;-41
2024/01/02 06:13:52;;;;;;;14.50;13.00;;;;;;;31.63;65.30;100819.22;4960292;28;69606;-41
2024/01/02 06:16:23;;;;;;;12.75;11.85;;;;;;;31.59;64.91;100814.25;4977934;28;65289;-41
2024/01/02 06:18:53;;;;;;;14.88;13.25;;;;;;;31.67;64.90;100820.41;4967513;28;70634;-41
2024/01/02 06:21:23;;;;;;;14.23;12.88;;;;;;;31.58;65.05;100795.50;4967101;28;65997;-40
2024/01/02 06:23:53;;;;;;;14.18;11.85;;;;;;;31.70;65.13;100809.94;4930823;28;70522;-40
2024/01/02 06:26:25;;;;;;;13.23;12.02;;;;;;;31.69;64.73;100796.63;4965888;28;66782;-39
2024/01/02 06:28:55;;;;;;;13.38;12.10;;;;;;;31.68;65.16;100782.25;4968145;28;69825;-40
2024/01/02 06:31:25;;;;;;;13.70;12.48;;;;;;;31.68;65.04;100778.69;4968926;28;66556;-41
2024/01/02 06:33:56;;;;;;;13.32;12.13;;;;;;;31.76;64.92;100789.22;4968912;28;69673;-41
2024/01/02 06:36:26;;;;;;;13.05;11.85;;;;;;;31.76;65.17;100786.50;4954951;28;66368;-41
2024/01/02 06:38:58;;;;;;;13.43;12.38;;;;;;;31.79;65.29;100783.34;4945922;28;69464;-41
2024/01/02 06:41:28;;;;;;;13.25;12.27;;;;;;;31.79;64.84;100780.66;4920709;28;64888;-40
2024/01/02 06:43:58;;;;;;;12.27;11.48;;;;;;;31.81;64.77;100775.78;4965695;28;70881;-40
2024/01/02 06:46:29;;;;;;;13.80;12.70;;;;;;;31.84;65.08;100772.63;4949053;28;66041;-41
2024/01/02 06:48:59;;;;;;;13.13;11.90;;;;;;;31.85;64.74;100774.28;4973027;28;69872;-41
2024/01/02 06:51:30;;;;;;;13.23;12.20;;;;;;;31.87;64.90;100761.31;4961403;28;66039;-41
2024/01/02 06:54:00;;;;;;;13.30;12.30;;;;;;;31.89;64.75;100758.38;4943948;28;70591;-41
2024/01/02 06:56:30;;;;;;;13.68;12.57;;;;;;;31.89;64.63;100748.34;4962189;28;66403;-41
2024/01/02 06:59:01;;;;;;;13.30;12.18;;;;;;;31.93;64.75;100751.44;4952771;28;70456;-41
2024/01/02 07:01:31;;;;;;;12.60;11.80;;;;;;;31.82;64.86;100723.22;4942247;28;66266;-41
2024/01/02 07:04:02;;;;;;;13.88;12.73;;;;;;;31.84;65.05;100718.38;4952708;28;70180;-40
2024/01/02 07:06:32;;;;;;;13.35;12.15;;;;;;;31.96;64.83;100726.59;4963470;28;66892;-41
2024/01/02 07:09:03;;;;;;;12.60;11.70;;;;;;;32.00;64.66;100728.59;4978276;28;70810;-41
2024/01/02 07:11:33;;;;;;;13.48;12.38;;;;;;;32.03;65.01;100728.13;4966619;28;66512;-40
2024/01/02 07:14:04;;;;;;;12.40;11.50;;;;;;;32.05;64.86;100726.03;4961200;28;69572;-41
2024/01/02 07:16:34;;;;;;;14.57;12.00;;;;;;;31.38;64.73;100611.44;4971804;28;66286;-41
2024/01/02 07:19:04;;;;;;;13.75;12.30;;;;;;;32.09;64.41;100717.41;4960770;28;70570;-40
2024/01/02 07:21:35;;;;;;;13.00;11.70;;;;;;;32.13;64.62;100724.06;4974416;28;66749;-40
2024/01/02 07:24:05;;;;;;;13.25;12.15;;;;;;;32.16;64.58;100712.72;4958629;28;69633;-41
2024/01/02 07:26:35;;;;;;;13.43;12.20;;;;;;;32.13;64.30;100710.47;4942639;28;66355;-41
2024/01/02 07:29:06;;;;;;;13.48;12.32;;;;;;;32.16;64.50;100710.00;4965543;28;69734;-41
2024/01/02 07:31:36;;;;;;;13.20;12.13;;;;;;;32.21;64.53;100713.69;4966391;28;66615;-40
2024/01/02 07:34:07;;;;;;;12.82;11.70;;;;;;;32.04;65.09;100686.41;4965573;28;69716;-40
2024/01/02 07:36:37;;;;;;;12.53;11.53;;;;;;;32.22;64.58;100703.66;4970036;28;66445;-41
2024/01/02 07:39:07;;;;;;;12.93;11.93;;;;;;;32.32;64.61;100719.34;4962585;28;70696;-40
2024/01/02 07:41:38;;;;;;;13.27;11.98;;;;;;;32.34;64.48;100711.78;4965887;28;66438;-40
2024/01/02 07:44:08;;;;;;;13.50;12.48;;;;;;;32.37;64.40;100706.72;4947968;28;70412;-41
2024/01/02 07:46:39;;;;;;;13.13;12.10;;;;;;;32.39;64.35;100704.59;4959150;28;66102;-39
2024/01/02 07:49:09;;;;;;;13.55;12.35;;;;;;;32.37;64.34;100695.03;4960350;28;70178;-42
2024/01/02 07:51:40;;;;;;;13.80;12.55;;;;;;;32.41;63.97;100702.50;4946635;28;66479;-40
2024/01/02 07:54:11;;;;;;;12.93;11.83;;;;;;;32.45;64.31;100697.41;4968215;28;70888;-41
2024/01/02 07:56:41;;;;;;;13.20;12.30;;;;;;;32.49;64.50;100693.19;4972319;28;66245;-44
2024/01/02 07:59:15;;;;;;;13.43;12.38;;;;;;;32.54;64.12;100697.91;4959513;28;70109;-40
2024/01/02 08:01:47;;;;;;;12.73;11.70;;;;;;;32.47;64.10;100679.84;4963714;28;65959;-41
2024/01/02 08:04:18;;;;;;;13.30;12.15;;;;;;;32.58;64.35;100682.81;4965461;28;69389;-40
2024/01/02 08:06:48;;;;;;;13.27;12.15;;;;;;;32.59;64.02;100684.44;4964747;28;66689;-41
2024/01/02 08:09:19;;;;;;;14.38;12.98;;;;;;;32.68;64.12;100691.16;4943019;28;69072;-40
2024/01/02 08:11:49;;;;;;;14.20;12.77;;;;;;;32.69;64.08;100703.72;4975644;28;65399;-41
2024/01/02 08:14:20;;;;;;;13.80;12.57;;;;;;;32.71;63.95;100693.44;4941840;28;70048;-41
2024/01/02 08:16:50;;;;;;;12.65;11.55;;;;;;;32.70;63.95;100694.47;4943441;28;66220;-40
2024/01/02 08:19:21;;;;;;;13.65;12.50;;;;;;;32.77;63.91;100706.06;4964252;28;70773;-42
2024/01/02 08:21:51;;;;;;;13.10;12.05;;;;;;;32.81;63.90;100706.41;4976455;28;65664;-40
2024/01/02 08:24:21;;;;;;;13.23;12.23;;;;;;;32.83;63.79;100696.97;4934078;28;68498;-41
2024/01/02 08:26:52;;;;;;;13.07;11.93;;;;;;;32.86;63.87;100707.34;4970517;28;65375;-42
2024/01/02 08:29:23;;;;;;;13.47;12.20;;;;;;;32.85;63.69;100708.41;4954802;28;70030;-41
2024/01/02 08:31:53;;;;;;;13.52;12.07;;;;;;;32.91;63.65;100712.91;4942716;28;66004;-42
2024/01/02 08:34:24;;;;;;;13.60;12.50;;;;;;;32.92;63.37;100709.09;4948429;28;69691;-41
2024/01/02 08:36:54;;;;;;;13.25;12.20;;;;;;;32.96;63.57;100711.34;4974729;28;65656;-41
2024/01/02 08:39:24;;;;;;;12.27;11.38;;;;;;;32.99;63.37;100708.13;4982770;28;69519;-41
2024/01/02 08:41:54;;;;;;;14.15;11.63;;;;;;;33.00;63.47;100716.09;4970591;28;66360;-41
2024/01/02 08:44:24;;;;;;;14.63;12.68;;;;;;;33.01;63.16;100715.03;4969875;28;69310;-41
2024/01/02 08:46:56;;;;;;;14.02;12.68;;;;;;;32.92;63.01;100698.22;4977983;28;66870;-41
2024/01/02 08:49:27;;;;;;;12.77;11.77;;;;;;;33.04;63.22;100717.28;4973697;28;69248;-41
2024/01/02 08:51:57;;;;;;;13.77;12.52;;;;;;;33.05;62.88;100716.22;4943565;28;67438;-41
2024/01/02 08:54:28;;;;;;;14.43;13.20;;;;;;;33.05;63.17;100707.25;4965259;28;69721;-40
2024/01/02 08:56:58;;;;;;;15.20;13.70;;;;;;;33.09;63.24;100711.13;4964150;28;65719;-40
2024/01/02 08:59:28;;;;;;;16.23;12.88;;;;;;;33.11;63.16;100722.59;4954237;28;69880;-40
2024/01/02 09:01:58;;;;;;;13.75;12.65;;;;;;;33.09;63.21;100713.84;4971815;28;65641;-41
2024/01/02 09:04:29;;;;;;;13.98;12.77;;;;;;;33.12;63.25;100729.66;4968460;28;70316;-40
2024/01/02 09:06:59;;;;;;;14.45;12.80;;;;;;;33.13;63.17;100726.72;4946761;28;67291;-40
2024/01/02 09:09:29;;;;;;;14.15;12.93;;;;;;;33.16;63.16;100736.28;4972500;28;70481;-40
2024/01/02 09:12:01;;;;;;;14.50;13.13;;;;;;;33.15;63.13;100737.34;4973971;28;66266;-40
2024/01/02 09:14:31;;;;;;;12.65;11.85;;;;;;;33.17;63.28;100742.53;4969211;28;70224;-40
2024/01/02 09:17:03;;;;;;;13.10;12.10;;;;;;;33.15;62.78;100735.47;4963979;28;65234;-41
2024/01/02 09:19:33;;;;;;;15.23;13.60;;;;;;;32.63;65.24;100734.53;4961661;28;69422;-40
2024/01/02 09:22:04;;;;;;;16.53;14.83;;;;;;;32.50;65.96;100746.44;4967444;28;68112;-42
2024/01/02 09:24:34;;;;;;;16.05;14.50;;;;;;;32.41;67.66;100751.34;4954578;28;69434;-42
2024/01/02 09:27:08;;;;;;;16.75;15.05;;;;;;;32.41;67.52;100751.34;4971974;28;65958;-42
2024/01/02 09:29:39;;;;;;;17.35;15.43;;;;;;;32.35;68.40;100760.44;4973774;28;69551;-42
2024/01/02 09:32:12;;;;;;;20.88;15.68;;;;;;;32.32;69.83;100758.19;4979304;28;65207;-41
2024/01/02 09:34:43;;;;;;;17.45;15.45;;;;;;;32.20;69.44;100739.16;4980031;28;69242;-42
2024/01/02 09:37:17;;;;;;;24.95;16.35;;;;;;;32.35;68.27;100763.16;4967180;28;65946;-41
2024/01/02 09:39:48;;;;;;;17.88;16.10;;;;;;;32.17;69.08;100739.63;4971985;28;70169;-42
2024/01/02 09:42:35;;;;;;;25.63;15.73;;;;;;;32.24;71.12;100758.53;4963540;28;66548;-42
2024/01/02 09:45:24;;;;;;;21.73;19.42;;;;;;;32.31;72.16;100772.81;4978002;28;70019;-41
2024/01/02 09:48:05;;;;;;;25.58;19.83;;;;;;;32.32;72.74;100769.06;4964309;28;66193;-41
2024/01/02 09:51:06;;;;;;;26.23;19.30;;;;;;;32.24;73.17;100774.81;4970612;28;70376;-41
2024/01/02 09:53:55;;;;;;;22.05;18.70;;;;;;;32.20;73.01;100773.59;4967793;28;66642;-42
2024/01/02 09:56:34;;;;;;;20.48;18.17;;;;;;;32.28;72.26;100784.13;4948258;28;70348;-42
2024/01/02 09:59:20;;;;;;;20.42;18.33;;;;;;;31.44;72.87;100651.16;4971950;28;65636;-42
2024/01/02 10:02:12;;;;;;;21.60;18.00;;;;;;;32.28;73.17;100789.56;4966738;28;69630;-42
2024/01/02 10:05:08;;;;;;;21.75;18.38;;;;;;;32.08;73.58;100768.16;4960679;28;66695;-42
2024/01/02 10:08:02;;;;;;;23.58;17.50;;;;;;;32.19;73.86;100796.38;4974647;28;70518;-42
2024/01/02 10:10:41;;;;;;;25.85;18.17;;;;;;;32.27;71.60;100798.78;4962912;28;66590;-42
2024/01/02 10:13:24;;;;;;;26.73;18.35;;;;;;;32.09;73.83;100774.41;4947345;28;70015;-43
2024/01/02 10:16:22;;;;;;;19.15;17.33;;;;;;;32.22;73.94;100804.06;4961349;28;66298;-42
2024/01/02 10:19:23;;;;;;;19.90;17.95;;;;;;;31.77;73.90;100747.50;4948914;28;70621;-42
2024/01/02 10:21:56;;;;;;;19.80;16.80;;;;;;;32.23;73.71;100824.72;4962216;28;66859;-42
2024/01/02 10:24:37;;;;;;;23.50;16.83;;;;;;;32.25;74.16;100819.88;4963039;28;70674;-42
2024/01/02 10:27:12;;;;;;;20.23;17.60;;;;;;;31.85;74.19;100768.06;4941839;28;65465;-42
2024/01/02 10:30:21;;;;;;;17.25;15.55;;;;;;;32.13;75.35;100836.13;4961426;28;70852;-43
2024/01/02 10:33:17;;;;;;;19.05;16.33;;;;;;;32.16;74.76;100835.66;4949059;28;66781;-43
2024/01/02 10:36:03;;;;;;;27.77;16.80;;;;;;;32.16;75.13;100830.25;4959379;28;70555;-41
2024/01/02 10:38:53;;;;;;;18.98;17.15;;;;;;;31.73;75.31;100762.56;4955710;28;66016;-42
2024/01/02 10:42:06;;;;;;;25.02;17.90;;;;;;;31.69;76.48;100772.22;4971882;28;70547;-43
2024/01/02 10:44:51;;;;;;;23.13;20.15;;;;;;;32.18;76.36;100854.41;4969328;28;66581;-44
2024/01/02 10:47:48;;;;;;;30.83;21.92;;;;;;;32.15;76.64;100844.03;4954026;28;70238;-42
2024/01/02 10:50:26;;;;;;;25.05;19.50;;;;;;;31.76;76.62;100787.34;4947144;28;65367;-42
2024/01/02 10:52:59;;;;;;;23.52;19.15;;;;;;;32.18;76.50;100862.56;4940601;28;69924;-41
2024/01/02 10:55:54;;;;;;;19.50;17.58;;;;;;;32.09;76.99;100872.09;4970048;28;65172;-43
2024/01/02 10:58:32;;;;;;;19.02;17.35;;;;;;;32.13;76.67;100884.16;4970314;28;70317;-41
2024/01/02 11:01:09;;;;;;;18.77;16.55;;;;;;;32.05;76.73;100880.69;4971625;28;66604;-42
2024/01/02 11:03:50;;;;;;;18.58;16.58;;;;;;;31.73;76.72;100835.78;4957801;28;70563;-41
2024/01/02 11:06:43;;;;;;;18.80;16.10;;;;;;;31.69;76.42;100831.88;4973132;28;66422;-42
2024/01/02 11:09:52;;;;;;;20.65;16.65;;;;;;;32.02;77.10;100905.56;4961425;28;69797;-41
2024/01/02 11:12:26;;;;;;;20.02;15.65;;;;;;;31.72;76.45;100839.56;4939678;28;65694;-42
2024/01/02 11:14:58;;;;;;;17.25;15.52;;;;;;;32.10;76.74;100911.75;4944567;28;69326;-41
2024/01/02 11:17:31;;;;;;;17.92;16.08;;;;;;;32.11;76.54;100919.66;4964575;28;67237;-41
2024/01/02 11:20:10;;;;;;;22.35;15.57;;;;;;;31.65;77.32;100849.63;4975639;28;70158;-41
2024/01/02 11:22:51;;;;;;;17.17;14.75;;;;;;;31.67;77.26;100864.63;4950155;28;66740;-42
2024/01/02 11:25:28;;;;;;;19.70;15.85;;;;;;;31.66;76.71;100852.13;4949875;28;69992;-41
2024/01/02 11:28:14;;;;;;;16.48;14.60;;;;;;;31.95;77.69;100914.84;4979804;28;66547;-41
2024/01/02 11:30:52;;;;;;;16.75;14.27;;;;;;;32.02;76.52;100921.84;4953741;28;69582;-41
2024/01/02 11:33:33;;;;;;;17.38;14.13;;;;;;;32.01;77.33;100938.34;4950416;28;67051;-41
2024/01/02 11:36:28;;;;;;;16.17;13.32;;;;;;;31.99;77.70;100937.75;4976284;28;70321;-42